createdAt,value
2017-03-09T00:00:07.594Z,100421
2017-03-09T00:01:07.079Z,100422
2017-03-09T00:02:07.078Z,100420
2017-03-09T00:03:07.167Z,100420
2017-03-09T00:04:07.151Z,100421
2017-03-09T00:05:07.748Z,100417
2017-03-09T00:06:07.725Z,100422
2017-03-09T00:07:07.799Z,100427
2017-03-09T00:08:07.815Z,100424
2017-03-09T00:09:07.871Z,100425
2017-03-09T00:10:07.434Z,100431
2017-03-09T00:11:07.470Z,100431
2017-03-09T00:12:08.041Z,100434
2017-03-09T00:13:07.588Z,100440
2017-03-09T00:14:08.144Z,100444
2017-03-09T00:15:07.679Z,100440
2017-03-09T00:16:07.718Z,100446
2017-03-09T00:17:07.835Z,100445
2017-03-09T00:18:08.368Z,100453
2017-03-09T00:19:07.914Z,100456
2017-03-09T00:20:07.977Z,100460
2017-03-09T00:21:07.988Z,100460
2017-03-09T00:22:08.083Z,100459
2017-03-09T00:23:08.634Z,100466
2017-03-09T00:24:08.735Z,100462
2017-03-09T00:25:08.795Z,100463
2017-03-09T00:26:08.766Z,100469
2017-03-09T00:27:08.818Z,100468
2017-03-09T00:28:08.335Z,100470
2017-03-09T00:29:08.910Z,100473
2017-03-09T00:30:08.474Z,100473
2017-03-09T00:31:08.985Z,100471
2017-03-09T00:32:08.535Z,100468
2017-03-09T00:33:09.103Z,100473
2017-03-09T00:34:08.553Z,100476
2017-03-09T00:35:09.158Z,100478
2017-03-09T00:36:08.669Z,100479
2017-03-09T00:37:09.279Z,100479
2017-03-09T00:38:08.721Z,100481
2017-03-09T00:39:09.303Z,100476
2017-03-09T00:40:09.415Z,100479
2017-03-09T00:41:09.517Z,100485
2017-03-09T00:42:09.480Z,100484
2017-03-09T00:43:09.040Z,100488
2017-03-09T00:44:09.060Z,100480
2017-03-09T00:45:09.119Z,100486
2017-03-09T00:46:09.182Z,100482
2017-03-09T00:47:09.241Z,100485
2017-03-09T00:48:09.379Z,100487
2017-03-09T00:49:09.421Z,100482
2017-03-09T00:50:09.423Z,100483
2017-03-09T00:51:10.021Z,100488
2017-03-09T00:52:10.094Z,100481
2017-03-09T00:53:10.146Z,100487
2017-03-09T00:54:09.750Z,100486
2017-03-09T00:55:09.725Z,100487
2017-03-09T00:56:09.811Z,100490
2017-03-09T00:57:09.873Z,100492
2017-03-09T00:58:10.460Z,100497
2017-03-09T00:59:10.478Z,100498
2017-03-09T01:00:10.041Z,100496
2017-03-09T01:01:10.018Z,100499
2017-03-09T01:02:10.019Z,100502
2017-03-09T01:03:10.104Z,100502
2017-03-09T01:04:10.210Z,100503
2017-03-09T01:05:10.204Z,100505
2017-03-09T01:06:10.833Z,100504
2017-03-09T01:07:10.903Z,100505
2017-03-09T01:08:10.467Z,100507
2017-03-09T01:09:10.531Z,100504
2017-03-09T01:10:10.586Z,100496
2017-03-09T01:11:11.089Z,100503
2017-03-09T01:12:11.177Z,100501
2017-03-09T01:13:10.718Z,100508
2017-03-09T01:14:10.722Z,100507
2017-03-09T01:15:11.346Z,100514
2017-03-09T01:16:11.414Z,100509
2017-03-09T01:17:11.479Z,100515
2017-03-09T01:18:11.536Z,100513
2017-03-09T01:19:11.639Z,100520
2017-03-09T01:20:11.622Z,100521
2017-03-09T01:21:11.703Z,100520
2017-03-09T01:22:11.784Z,100519
2017-03-09T01:23:11.290Z,100520
2017-03-09T01:24:11.359Z,100526
2017-03-09T01:25:11.902Z,100529
2017-03-09T01:26:11.503Z,100529
2017-03-09T01:27:11.552Z,100529
2017-03-09T01:28:11.609Z,100533
2017-03-09T01:29:12.155Z,100537
2017-03-09T01:30:11.687Z,100540
2017-03-09T01:31:12.229Z,100539
2017-03-09T01:32:11.679Z,100537
2017-03-09T01:33:12.344Z,100538
2017-03-09T01:34:12.341Z,100543
2017-03-09T01:35:11.918Z,100540
2017-03-09T01:36:12.525Z,100545
2017-03-09T01:37:12.074Z,100547
2017-03-09T01:38:12.681Z,100540
2017-03-09T01:39:12.749Z,100540
2017-03-09T01:40:12.219Z,100543
2017-03-09T01:41:12.828Z,100541
2017-03-09T01:42:12.884Z,100542
2017-03-09T01:43:12.355Z,100541
2017-03-09T01:44:12.456Z,100538
2017-03-09T01:45:12.523Z,100539
2017-03-09T01:46:12.564Z,100540
2017-03-09T01:47:13.103Z,100539
2017-03-09T01:48:13.198Z,100539
2017-03-09T01:49:12.652Z,100541
2017-03-09T01:50:12.712Z,100540
2017-03-09T01:51:12.819Z,100539
2017-03-09T01:52:12.877Z,100539
2017-03-09T01:53:13.640Z,100539
2017-03-09T01:54:13.044Z,100539
2017-03-09T01:55:13.636Z,100540
2017-03-09T01:56:13.604Z,100535
2017-03-09T01:57:13.647Z,100532
2017-03-09T01:58:13.113Z,100539
2017-03-09T01:59:13.910Z,100534
2017-03-09T02:00:13.764Z,100537
2017-03-09T02:01:13.881Z,100535
2017-03-09T02:02:13.359Z,100534
2017-03-09T02:03:13.900Z,100531
2017-03-09T02:04:13.985Z,100534
2017-03-09T02:05:14.179Z,100529
2017-03-09T02:06:14.023Z,100530
2017-03-09T02:07:13.554Z,100530
2017-03-09T02:08:13.677Z,100527
2017-03-09T02:09:14.249Z,100523
2017-03-09T02:10:13.715Z,100521
2017-03-09T02:11:13.927Z,100531
2017-03-09T02:12:14.384Z,100528
2017-03-09T02:13:14.399Z,100529
2017-03-09T02:14:13.925Z,100523
2017-03-09T02:15:14.020Z,100526
2017-03-09T02:16:14.778Z,100523
2017-03-09T02:17:14.317Z,100513
2017-03-09T02:18:14.145Z,100512
2017-03-09T02:19:14.718Z,100512
2017-03-09T02:20:14.252Z,100516
2017-03-09T02:21:14.285Z,100513
2017-03-09T02:22:14.358Z,100503
2017-03-09T02:23:15.080Z,100508
2017-03-09T02:24:14.460Z,100507
2017-03-09T02:25:14.489Z,100512
2017-03-09T02:26:14.595Z,100506
2017-03-09T02:27:15.127Z,100509
2017-03-09T02:28:14.684Z,100506
2017-03-09T02:29:14.934Z,100502
2017-03-09T02:30:14.767Z,100500
2017-03-09T02:31:14.797Z,100499
2017-03-09T02:32:15.332Z,100485
2017-03-09T02:33:14.900Z,100501
2017-03-09T02:34:15.466Z,100504
2017-03-09T02:35:15.163Z,100504
2017-03-09T02:36:15.622Z,100502
2017-03-09T02:37:15.169Z,100503
2017-03-09T02:38:15.168Z,100506
2017-03-09T02:39:15.680Z,100509
2017-03-09T02:40:15.252Z,100507
2017-03-09T02:41:15.420Z,100497
2017-03-09T02:42:15.333Z,100502
2017-03-09T02:43:15.475Z,100490
2017-03-09T02:44:15.432Z,100495
2017-03-09T02:45:15.488Z,100499
2017-03-09T02:46:16.126Z,100494
2017-03-09T02:47:16.321Z,100497
2017-03-09T02:48:16.219Z,100502
2017-03-09T02:49:15.793Z,100501
2017-03-09T02:50:16.422Z,100497
2017-03-09T02:51:16.419Z,100497
2017-03-09T02:52:16.083Z,100503
2017-03-09T02:53:16.528Z,100508
2017-03-09T02:54:16.013Z,100516
2017-03-09T02:55:16.058Z,100527
2017-03-09T02:56:16.712Z,100528
2017-03-09T02:57:16.237Z,100540
2017-03-09T02:58:16.959Z,100540
2017-03-09T02:59:16.854Z,100545
2017-03-09T03:00:16.873Z,100545
2017-03-09T03:01:16.997Z,100554
2017-03-09T03:02:16.511Z,100552
2017-03-09T03:03:16.603Z,100559
2017-03-09T03:04:17.437Z,100553
2017-03-09T03:05:16.783Z,100563
2017-03-09T03:06:16.887Z,100558
2017-03-09T03:07:17.550Z,100563
2017-03-09T03:08:17.069Z,100565
2017-03-09T03:09:17.094Z,100565
2017-03-09T03:10:17.924Z,100573
2017-03-09T03:11:17.767Z,100573
2017-03-09T03:12:17.281Z,100573
2017-03-09T03:13:17.369Z,100568
2017-03-09T03:14:17.923Z,100568
2017-03-09T03:15:17.421Z,100573
2017-03-09T03:16:17.581Z,100571
2017-03-09T03:17:17.502Z,100573
2017-03-09T03:18:17.481Z,100572
2017-03-09T03:19:17.557Z,100576
2017-03-09T03:20:18.220Z,100578
2017-03-09T03:21:18.286Z,100580
2017-03-09T03:22:17.915Z,100577
2017-03-09T03:23:18.285Z,100575
2017-03-09T03:24:18.352Z,100581
2017-03-09T03:25:18.355Z,100575
2017-03-09T03:26:17.887Z,100575
2017-03-09T03:27:17.933Z,100579
2017-03-09T03:28:18.114Z,100573
2017-03-09T03:29:17.906Z,100574
2017-03-09T03:30:17.951Z,100564
2017-03-09T03:31:18.530Z,100566
2017-03-09T03:32:18.061Z,100564
2017-03-09T03:33:18.667Z,100568
2017-03-09T03:34:18.299Z,100562
2017-03-09T03:35:18.685Z,100566
2017-03-09T03:36:18.720Z,100566
2017-03-09T03:37:18.281Z,100562
2017-03-09T03:38:18.263Z,100551
2017-03-09T03:39:18.343Z,100546
2017-03-09T03:40:18.530Z,100542
2017-03-09T03:41:18.384Z,100542
2017-03-09T03:42:18.938Z,100536
2017-03-09T03:43:19.086Z,100538
2017-03-09T03:44:18.543Z,100535
2017-03-09T03:45:18.630Z,100535
2017-03-09T03:46:19.467Z,100528
2017-03-09T03:47:19.336Z,100533
2017-03-09T03:48:18.791Z,100528
2017-03-09T03:49:19.452Z,100529
2017-03-09T03:50:19.527Z,100532
2017-03-09T03:51:19.559Z,100535
2017-03-09T03:52:19.909Z,100535
2017-03-09T03:53:19.216Z,100531
2017-03-09T03:54:19.834Z,100533
2017-03-09T03:55:19.908Z,100533
2017-03-09T03:56:19.907Z,100525
2017-03-09T03:57:19.467Z,100526
2017-03-09T03:58:19.825Z,100519
2017-03-09T03:59:20.188Z,100529
2017-03-09T04:00:19.719Z,100530
2017-03-09T04:01:20.253Z,100532
2017-03-09T04:02:19.727Z,100540
2017-03-09T04:03:20.354Z,100543
2017-03-09T04:04:20.514Z,100540
2017-03-09T04:05:19.868Z,100540
2017-03-09T04:06:19.971Z,100547
2017-03-09T04:07:20.514Z,100543
2017-03-09T04:08:19.982Z,100541
2017-03-09T04:09:20.632Z,100540
2017-03-09T04:10:20.811Z,100538
2017-03-09T04:11:20.666Z,100545
2017-03-09T04:12:20.714Z,100548
2017-03-09T04:13:20.739Z,100540
2017-03-09T04:14:20.845Z,100537
2017-03-09T04:15:20.390Z,100544
2017-03-09T04:16:20.690Z,100542
2017-03-09T04:17:20.587Z,100546
2017-03-09T04:18:20.645Z,100544
2017-03-09T04:19:21.232Z,100543
2017-03-09T04:20:21.279Z,100543
2017-03-09T04:21:21.285Z,100540
2017-03-09T04:22:21.462Z,100539
2017-03-09T04:23:21.393Z,100542
2017-03-09T04:24:21.399Z,100536
2017-03-09T04:25:20.932Z,100533
2017-03-09T04:26:21.600Z,100530
2017-03-09T04:27:21.098Z,100528
2017-03-09T04:28:21.846Z,100531
2017-03-09T04:29:21.735Z,100524
2017-03-09T04:30:21.306Z,100533
2017-03-09T04:31:21.270Z,100525
2017-03-09T04:32:21.879Z,100526
2017-03-09T04:33:21.961Z,100532
2017-03-09T04:34:21.672Z,100532
2017-03-09T04:35:21.555Z,100525
2017-03-09T04:36:21.586Z,100527
2017-03-09T04:37:21.743Z,100522
2017-03-09T04:38:21.747Z,100523
2017-03-09T04:39:21.763Z,100522
2017-03-09T04:40:21.962Z,100527
2017-03-09T04:41:22.380Z,100524
2017-03-09T04:42:21.917Z,100520
2017-03-09T04:43:21.944Z,100525
2017-03-09T04:44:21.977Z,100527
2017-03-09T04:45:22.582Z,100524
2017-03-09T04:46:22.333Z,100521
2017-03-09T04:47:22.726Z,100528
2017-03-09T04:48:22.775Z,100530
2017-03-09T04:49:22.259Z,100530
2017-03-09T04:50:22.863Z,100531
2017-03-09T04:51:22.376Z,100523
2017-03-09T04:52:23.145Z,100519
2017-03-09T04:53:23.022Z,100510
2017-03-09T04:54:22.468Z,100504
2017-03-09T04:55:22.520Z,100509
2017-03-09T04:56:23.080Z,100502
2017-03-09T04:57:23.117Z,100505
2017-03-09T04:58:23.356Z,100499
2017-03-09T04:59:22.715Z,100498
2017-03-09T05:00:23.215Z,100496
2017-03-09T05:01:22.720Z,100496
2017-03-09T05:02:22.744Z,100494
2017-03-09T05:03:22.789Z,100490
2017-03-09T05:04:23.524Z,100492
2017-03-09T05:05:23.352Z,100489
2017-03-09T05:06:22.831Z,100491
2017-03-09T05:07:22.929Z,100496
2017-03-09T05:08:23.034Z,100493
2017-03-09T05:09:23.066Z,100499
2017-03-09T05:10:23.837Z,100497
2017-03-09T05:11:23.160Z,100500
2017-03-09T05:12:23.257Z,100508
2017-03-09T05:13:23.351Z,100514
2017-03-09T05:14:23.387Z,100522
2017-03-09T05:15:23.441Z,100519
2017-03-09T05:16:23.652Z,100515
2017-03-09T05:17:23.635Z,100516
2017-03-09T05:18:23.630Z,100515
2017-03-09T05:19:24.208Z,100518
2017-03-09T05:20:23.772Z,100515
2017-03-09T05:21:24.310Z,100524
2017-03-09T05:22:24.108Z,100528
2017-03-09T05:23:23.800Z,100534
2017-03-09T05:24:24.405Z,100535
2017-03-09T05:25:24.477Z,100536
2017-03-09T05:26:24.581Z,100537
2017-03-09T05:27:24.550Z,100537
2017-03-09T05:28:24.924Z,100534
2017-03-09T05:29:24.635Z,100529
2017-03-09T05:30:24.172Z,100526
2017-03-09T05:31:24.748Z,100525
2017-03-09T05:32:24.858Z,100528
2017-03-09T05:33:24.905Z,100529
2017-03-09T05:34:25.207Z,100529
2017-03-09T05:35:24.432Z,100522
2017-03-09T05:36:24.474Z,100510
2017-03-09T05:37:24.484Z,100510
2017-03-09T05:38:24.530Z,100503
2017-03-09T05:39:24.591Z,100502
2017-03-09T05:40:24.854Z,100506
2017-03-09T05:41:25.185Z,100500
2017-03-09T05:42:24.728Z,100498
2017-03-09T05:43:25.307Z,100500
2017-03-09T05:44:24.851Z,100504
2017-03-09T05:45:25.102Z,100506
2017-03-09T05:46:24.979Z,100507
2017-03-09T05:47:25.070Z,100503
2017-03-09T05:48:25.619Z,100499
2017-03-09T05:49:25.657Z,100502
2017-03-09T05:50:25.183Z,100504
2017-03-09T05:51:25.350Z,100496
2017-03-09T05:52:25.252Z,100494
2017-03-09T05:53:25.240Z,100505
2017-03-09T05:54:25.918Z,100506
2017-03-09T05:55:26.030Z,100502
2017-03-09T05:56:25.953Z,100506
2017-03-09T05:57:26.233Z,100511
2017-03-09T05:58:26.049Z,100507
2017-03-09T05:59:26.111Z,100507
2017-03-09T06:00:25.605Z,100505
2017-03-09T06:01:25.705Z,100506
2017-03-09T06:02:26.235Z,100507
2017-03-09T06:03:26.113Z,100514
2017-03-09T06:04:25.833Z,100508
2017-03-09T06:05:25.835Z,100508
2017-03-09T06:06:25.896Z,100501
2017-03-09T06:07:25.917Z,100502
2017-03-09T06:08:26.505Z,100505
2017-03-09T06:09:26.142Z,100513
2017-03-09T06:10:26.628Z,100512
2017-03-09T06:11:26.092Z,100511
2017-03-09T06:12:26.730Z,100513
2017-03-09T06:13:26.793Z,100511
2017-03-09T06:14:26.844Z,100519
2017-03-09T06:15:27.127Z,100512
2017-03-09T06:16:26.919Z,100509
2017-03-09T06:17:26.447Z,100517
2017-03-09T06:18:26.494Z,100515
2017-03-09T06:19:26.585Z,100514
2017-03-09T06:20:26.600Z,100506
2017-03-09T06:21:26.861Z,100508
2017-03-09T06:22:26.622Z,100514
2017-03-09T06:23:26.603Z,100512
2017-03-09T06:24:26.649Z,100505
2017-03-09T06:25:26.777Z,100500
2017-03-09T06:26:27.293Z,100497
2017-03-09T06:27:27.644Z,100493
2017-03-09T06:28:27.383Z,100489
2017-03-09T06:29:26.900Z,100490
2017-03-09T06:30:28.185Z,100489
2017-03-09T06:31:27.524Z,100498
2017-03-09T06:32:27.029Z,100499
2017-03-09T06:33:27.317Z,100500
2017-03-09T06:34:27.080Z,100500
2017-03-09T06:35:27.140Z,100501
2017-03-09T06:36:27.714Z,100499
2017-03-09T06:37:27.789Z,100503
2017-03-09T06:38:27.835Z,100501
2017-03-09T06:39:28.219Z,100504
2017-03-09T06:40:28.662Z,100504
2017-03-09T06:41:27.498Z,100500
2017-03-09T06:42:28.109Z,100501
2017-03-09T06:43:28.138Z,100505
2017-03-09T06:44:27.654Z,100502
2017-03-09T06:45:28.412Z,100504
2017-03-09T06:46:27.704Z,100496
2017-03-09T06:47:27.744Z,100497
2017-03-09T06:48:27.759Z,100491
2017-03-09T06:49:28.368Z,100495
2017-03-09T06:50:28.404Z,100498
2017-03-09T06:51:28.427Z,100503
2017-03-09T06:52:27.946Z,100510
2017-03-09T06:53:27.968Z,100513
2017-03-09T06:54:28.540Z,100514
2017-03-09T06:55:28.678Z,100509
2017-03-09T06:56:29.321Z,100506
2017-03-09T06:57:28.694Z,100505
2017-03-09T06:58:28.208Z,100504
2017-03-09T06:59:28.832Z,100497
2017-03-09T07:00:28.310Z,100507
2017-03-09T07:01:28.914Z,100505
2017-03-09T07:02:28.976Z,100505
2017-03-09T07:03:28.518Z,100506
2017-03-09T07:04:29.049Z,100505
2017-03-09T07:05:28.631Z,100507
2017-03-09T07:06:29.222Z,100507
2017-03-09T07:07:28.668Z,100508
2017-03-09T07:08:28.745Z,100501
2017-03-09T07:09:28.804Z,100501
2017-03-09T07:10:28.855Z,100497
2017-03-09T07:11:28.891Z,100494
2017-03-09T07:12:29.506Z,100490
2017-03-09T07:13:29.606Z,100489
2017-03-09T07:14:29.623Z,100490
2017-03-09T07:15:29.148Z,100485
2017-03-09T07:16:29.260Z,100491
2017-03-09T07:17:29.305Z,100490
2017-03-09T07:18:29.980Z,100484
2017-03-09T07:19:29.361Z,100484
2017-03-09T07:20:30.591Z,100484
2017-03-09T07:21:30.622Z,100479
2017-03-09T07:22:30.102Z,100476
2017-03-09T07:23:29.581Z,100482
2017-03-09T07:24:30.285Z,100482
2017-03-09T07:25:29.669Z,100473
2017-03-09T07:26:30.309Z,100475
2017-03-09T07:27:30.324Z,100481
2017-03-09T07:28:29.856Z,100477
2017-03-09T07:29:30.547Z,100481
2017-03-09T07:30:30.535Z,100476
2017-03-09T07:31:30.070Z,100474
2017-03-09T07:32:30.132Z,100472
2017-03-09T07:33:30.661Z,100470
2017-03-09T07:34:30.172Z,100469
2017-03-09T07:35:30.716Z,100467
2017-03-09T07:36:31.300Z,100469
2017-03-09T07:37:30.284Z,100468
2017-03-09T07:38:30.874Z,100466
2017-03-09T07:39:31.811Z,100472
2017-03-09T07:40:30.898Z,100474
2017-03-09T07:41:30.960Z,100477
2017-03-09T07:42:31.002Z,100477
2017-03-09T07:43:30.509Z,100479
2017-03-09T07:44:30.536Z,100476
2017-03-09T07:45:31.082Z,100479
2017-03-09T07:46:30.611Z,100472
2017-03-09T07:47:31.171Z,100474
2017-03-09T07:48:30.708Z,100475
2017-03-09T07:49:31.283Z,100475
2017-03-09T07:50:31.860Z,100475
2017-03-09T07:51:31.396Z,100475
2017-03-09T07:52:30.942Z,100475
2017-03-09T07:53:33.099Z,100477
2017-03-09T07:54:31.559Z,100474
2017-03-09T07:55:31.077Z,100476
2017-03-09T07:56:31.724Z,100472
2017-03-09T07:57:32.441Z,100473
2017-03-09T07:58:31.254Z,100470
2017-03-09T07:59:31.848Z,100465
2017-03-09T08:00:31.351Z,100463
2017-03-09T08:01:31.897Z,100462
2017-03-09T08:02:31.975Z,100458
2017-03-09T08:03:32.033Z,100459
2017-03-09T08:04:31.564Z,100453
2017-03-09T08:05:32.168Z,100460
2017-03-09T08:06:32.226Z,100458
2017-03-09T08:07:31.745Z,100453
2017-03-09T08:08:32.352Z,100458
2017-03-09T08:09:31.839Z,100449
2017-03-09T08:10:31.838Z,100446
2017-03-09T08:11:32.542Z,100446
2017-03-09T08:12:31.991Z,100436
2017-03-09T08:13:32.025Z,100444
2017-03-09T08:14:32.078Z,100439
2017-03-09T08:15:32.152Z,100439
2017-03-09T08:16:32.155Z,100441
2017-03-09T08:17:32.914Z,100441
2017-03-09T08:18:32.833Z,100439
2017-03-09T08:19:32.383Z,100443
2017-03-09T08:20:32.956Z,100443
2017-03-09T08:21:32.422Z,100450
2017-03-09T08:22:33.051Z,100451
2017-03-09T08:23:32.547Z,100450
2017-03-09T08:24:32.569Z,100448
2017-03-09T08:25:33.170Z,100439
2017-03-09T08:26:33.259Z,100443
2017-03-09T08:27:32.769Z,100439
2017-03-09T08:28:33.392Z,100439
2017-03-09T08:29:32.878Z,100439
2017-03-09T08:30:32.955Z,100431
2017-03-09T08:31:33.539Z,100433
2017-03-09T08:32:33.615Z,100433
2017-03-09T08:33:34.392Z,100432
2017-03-09T08:34:34.401Z,100434
2017-03-09T08:35:33.242Z,100431
2017-03-09T08:36:34.583Z,100431
2017-03-09T08:39:33.471Z,100437
2017-03-09T08:40:34.093Z,100432
2017-03-09T08:41:34.311Z,100431
2017-03-09T08:42:35.189Z,100431
2017-03-09T08:43:33.724Z,100433
2017-03-09T08:44:34.276Z,100441
2017-03-09T08:45:35.336Z,100435
2017-03-09T08:46:33.864Z,100432
2017-03-09T08:47:34.436Z,100432
2017-03-09T08:48:33.957Z,100432
2017-03-09T08:49:35.236Z,100435
2017-03-09T08:50:34.648Z,100431
2017-03-09T08:51:35.396Z,100434
2017-03-09T08:52:34.785Z,100440
2017-03-09T08:53:34.797Z,100439
2017-03-09T08:54:34.273Z,100440
2017-03-09T08:55:34.358Z,100446
2017-03-09T08:56:34.372Z,100450
2017-03-09T08:57:34.429Z,100453
2017-03-09T08:58:35.079Z,100455
2017-03-09T08:59:34.592Z,100455
2017-03-09T09:00:35.204Z,100459
2017-03-09T09:01:34.730Z,100454
2017-03-09T09:02:34.677Z,100461
2017-03-09T09:03:34.775Z,100457
2017-03-09T09:04:34.891Z,100453
2017-03-09T09:05:35.437Z,100460
2017-03-09T09:06:35.477Z,100446
2017-03-09T09:07:35.608Z,100454
2017-03-09T09:08:35.085Z,100448
2017-03-09T09:09:35.679Z,100455
2017-03-09T09:10:35.684Z,100453
2017-03-09T09:11:35.890Z,100460
2017-03-09T09:12:35.854Z,100463
2017-03-09T09:13:35.850Z,100456
2017-03-09T09:14:35.879Z,100452
2017-03-09T09:15:35.421Z,100451
2017-03-09T09:16:36.043Z,100449
2017-03-09T09:17:36.100Z,100453
2017-03-09T09:18:35.645Z,100457
2017-03-09T09:19:35.645Z,100456
2017-03-09T09:20:35.656Z,100457
2017-03-09T09:21:36.295Z,100455
2017-03-09T09:22:35.883Z,100456
2017-03-09T09:23:35.844Z,100450
2017-03-09T09:24:36.393Z,100454
2017-03-09T09:25:35.906Z,100456
2017-03-09T09:26:36.004Z,100457
2017-03-09T09:27:36.551Z,100456
2017-03-09T09:28:36.631Z,100454
2017-03-09T09:29:37.421Z,100446
2017-03-09T09:30:36.707Z,100453
2017-03-09T09:31:36.176Z,100444
2017-03-09T09:32:37.465Z,100449
2017-03-09T09:33:36.185Z,100443
2017-03-09T09:34:44.225Z,100444
2017-03-09T09:35:39.763Z,100446
2017-03-09T09:36:42.948Z,100442
2017-03-09T09:37:41.480Z,100427
2017-03-09T09:38:39.309Z,100450
2017-03-09T09:39:39.501Z,100450
2017-03-09T09:40:40.706Z,100445
2017-03-09T09:41:40.387Z,100442
2017-03-09T09:42:39.587Z,100442
2017-03-09T09:43:42.782Z,100444
2017-03-09T09:44:41.874Z,100441
2017-03-09T09:45:42.754Z,100442
2017-03-09T09:46:38.220Z,100442
2017-03-09T09:47:36.686Z,100443
2017-03-09T09:48:37.305Z,100443
2017-03-09T09:49:37.417Z,100447
2017-03-09T09:50:36.840Z,100441
2017-03-09T09:51:37.441Z,100447
2017-03-09T09:52:36.873Z,100448
2017-03-09T09:53:37.440Z,100450
2017-03-09T09:54:36.903Z,100452
2017-03-09T09:57:39.247Z,100455
2017-03-09T09:58:37.647Z,100450
2017-03-09T09:59:38.930Z,100441
2017-03-09T10:00:38.975Z,100447
2017-03-09T10:01:40.087Z,100447
2017-03-09T10:02:37.767Z,100436
2017-03-09T10:03:37.311Z,100441
2017-03-09T10:04:37.382Z,100443
2017-03-09T10:05:37.909Z,100437
2017-03-09T10:06:37.452Z,100432
2017-03-09T10:07:37.550Z,100419
2017-03-09T10:08:44.821Z,100425
2017-03-09T10:09:38.107Z,100422
2017-03-09T10:10:38.234Z,100425
2017-03-09T10:11:39.570Z,100430
2017-03-09T10:12:37.748Z,100419
2017-03-09T10:13:37.823Z,100425
2017-03-09T10:14:37.900Z,100420
2017-03-09T10:15:40.500Z,100423
2017-03-09T10:16:37.985Z,100418
2017-03-09T10:17:42.455Z,100429
2017-03-09T10:18:39.291Z,100419
2017-03-09T10:19:40.465Z,100420
2017-03-09T10:20:41.429Z,100410
2017-03-09T10:21:38.720Z,100419
2017-03-09T10:22:38.294Z,100406
2017-03-09T10:23:39.066Z,100408
2017-03-09T10:24:40.628Z,100420
2017-03-09T10:25:38.452Z,100415
2017-03-09T10:26:40.238Z,100415
2017-03-09T10:27:39.230Z,100409
2017-03-09T10:28:41.081Z,100417
2017-03-09T10:29:39.288Z,100415
2017-03-09T10:30:39.071Z,100410
2017-03-09T10:31:39.134Z,100409
2017-03-09T10:32:38.601Z,100402
2017-03-09T10:33:38.667Z,100415
2017-03-09T10:34:38.745Z,100406
2017-03-09T10:35:42.895Z,100398
2017-03-09T10:36:39.455Z,100402
2017-03-09T10:37:39.493Z,100403
2017-03-09T10:38:39.829Z,100398
2017-03-09T10:39:40.371Z,100409
2017-03-09T10:40:39.676Z,100417
2017-03-09T10:41:39.357Z,100411
2017-03-09T10:42:39.277Z,100402
2017-03-09T10:43:39.325Z,100415
2017-03-09T10:44:40.424Z,100414
2017-03-09T10:45:39.953Z,100420
2017-03-09T10:46:40.016Z,100423
2017-03-09T10:47:40.242Z,100413
2017-03-09T10:48:40.897Z,100426
2017-03-09T10:49:39.630Z,100415
2017-03-09T10:50:40.266Z,100411
2017-03-09T10:51:39.800Z,100415
2017-03-09T10:52:39.811Z,100419
2017-03-09T10:53:40.504Z,100417
2017-03-09T10:54:40.952Z,100406
2017-03-09T10:55:40.435Z,100406
2017-03-09T10:56:40.464Z,100408
2017-03-09T10:57:40.496Z,100424
2017-03-09T10:58:39.969Z,100412
2017-03-09T10:59:40.085Z,100409
2017-03-09T11:00:40.568Z,100411
2017-03-09T11:01:40.058Z,100416
2017-03-09T11:02:40.642Z,100411
2017-03-09T11:03:40.144Z,100410
2017-03-09T11:04:40.256Z,100421
2017-03-09T11:05:41.746Z,100426
2017-03-09T11:06:46.473Z,100418
2017-03-09T11:07:40.446Z,100417
2017-03-09T11:08:40.462Z,100408
2017-03-09T11:09:41.052Z,100409
2017-03-09T11:10:40.626Z,100409
2017-03-09T11:11:41.332Z,100415
2017-03-09T11:12:41.191Z,100417
2017-03-09T11:14:41.416Z,100410
2017-03-09T11:15:41.846Z,100412
2017-03-09T11:16:41.325Z,100421
2017-03-09T11:17:42.815Z,100420
2017-03-09T11:18:41.442Z,100423
2017-03-09T11:19:40.949Z,100418
2017-03-09T11:20:40.978Z,100421
2017-03-09T11:21:40.998Z,100420
2017-03-09T11:22:48.546Z,100420
2017-03-09T11:23:43.042Z,100415
2017-03-09T11:24:41.147Z,100421
2017-03-09T11:25:41.215Z,100422
2017-03-09T11:26:41.744Z,100419
2017-03-09T11:27:41.863Z,100426
2017-03-09T11:28:41.843Z,100426
2017-03-09T11:29:42.025Z,100424
2017-03-09T11:30:41.917Z,100423
2017-03-09T11:31:41.929Z,100417
2017-03-09T11:32:42.014Z,100418
2017-03-09T11:33:41.990Z,100424
2017-03-09T11:34:42.692Z,100428
2017-03-09T11:35:42.964Z,100417
2017-03-09T11:36:42.211Z,100423
2017-03-09T11:37:42.246Z,100415
2017-03-09T11:38:41.683Z,100411
2017-03-09T11:39:42.295Z,100405
2017-03-09T11:40:42.375Z,100426
2017-03-09T11:41:42.559Z,100406
2017-03-09T11:42:42.508Z,100421
2017-03-09T11:43:42.538Z,100425
2017-03-09T11:44:42.603Z,100425
2017-03-09T11:45:42.584Z,100407
2017-03-09T11:46:42.719Z,100405
2017-03-09T11:47:42.357Z,100411
2017-03-09T11:48:46.736Z,100411
2017-03-09T11:49:43.547Z,100401
2017-03-09T11:50:43.183Z,100411
2017-03-09T11:51:46.714Z,100404
2017-03-09T11:52:43.094Z,100407
2017-03-09T11:53:43.387Z,100408
2017-03-09T11:55:43.287Z,100410
2017-03-09T11:56:46.290Z,100406
2017-03-09T11:57:43.439Z,100403
2017-03-09T11:58:43.604Z,100401
2017-03-09T11:59:43.089Z,100401
2017-03-09T12:00:45.501Z,100398
2017-03-09T12:01:43.668Z,100401
2017-03-09T12:02:43.684Z,100401
2017-03-09T12:03:44.012Z,100396
2017-03-09T12:04:43.845Z,100396
2017-03-09T12:05:44.054Z,100405
2017-03-09T12:06:43.852Z,100394
2017-03-09T12:07:43.403Z,100399
2017-03-09T12:08:43.972Z,100395
2017-03-09T12:09:43.461Z,100385
2017-03-09T12:10:43.531Z,100389
2017-03-09T12:11:43.580Z,100390
2017-03-09T12:12:44.130Z,100382
2017-03-09T12:13:43.606Z,100385
2017-03-09T12:14:44.836Z,100384
2017-03-09T12:15:43.592Z,100380
2017-03-09T12:16:43.704Z,100383
2017-03-09T12:17:44.208Z,100388
2017-03-09T12:18:44.291Z,100382
2017-03-09T12:19:44.919Z,100383
2017-03-09T12:20:45.033Z,100383
2017-03-09T12:21:43.971Z,100370
2017-03-09T12:22:44.053Z,100373
2017-03-09T12:23:44.042Z,100383
2017-03-09T12:24:44.716Z,100375
2017-03-09T12:25:46.080Z,100383
2017-03-09T12:26:44.957Z,100376
2017-03-09T12:27:45.080Z,100375
2017-03-09T12:28:44.301Z,100380
2017-03-09T12:29:44.320Z,100378
2017-03-09T12:30:44.927Z,100383
2017-03-09T12:31:44.440Z,100383
2017-03-09T12:32:44.579Z,100384
2017-03-09T12:33:45.177Z,100378
2017-03-09T12:34:44.656Z,100380